createdAt,value
2018-12-23T00:00:05.523Z,8.72
2018-12-23T00:01:05.495Z,8.72
2018-12-23T00:02:06.469Z,8.72
2018-12-23T00:03:05.281Z,8.72
2018-12-23T00:04:05.257Z,8.68
2018-12-23T00:05:26.104Z,8.77
2018-12-23T00:06:05.066Z,8.62
2018-12-23T00:07:04.960Z,8.61
2018-12-23T00:08:04.976Z,8.61
2018-12-23T00:09:04.804Z,8.62
2018-12-23T00:10:04.784Z,8.66
2018-12-23T00:11:25.618Z,8.62
2018-12-23T00:12:04.594Z,8.65
2018-12-23T00:13:04.488Z,8.62
2018-12-23T00:14:04.504Z,8.62
2018-12-23T00:15:04.323Z,8.65
2018-12-23T00:16:04.312Z,8.62
2018-12-23T00:17:25.142Z,8.52
2018-12-23T00:18:04.121Z,8.58
2018-12-23T00:19:04.006Z,8.55
2018-12-23T00:20:04.033Z,8.52
2018-12-23T00:21:03.846Z,8.54
2018-12-23T00:22:03.849Z,8.52
2018-12-23T00:23:24.663Z,8.43
2018-12-23T00:24:03.665Z,8.40
2018-12-23T00:25:03.527Z,8.55
2018-12-23T00:26:03.559Z,8.43
2018-12-23T00:27:03.372Z,8.43
2018-12-23T00:28:03.376Z,8.48
2018-12-23T00:29:24.193Z,8.52
2018-12-23T00:30:03.181Z,8.47
2018-12-23T00:31:03.049Z,8.48
2018-12-23T00:32:02.993Z,8.50
2018-12-23T00:33:02.894Z,8.51
2018-12-23T00:34:02.903Z,8.43
2018-12-23T00:35:23.710Z,8.44
2018-12-23T00:36:02.711Z,8.44
2018-12-23T00:37:02.575Z,8.47
2018-12-23T00:38:02.524Z,8.42
2018-12-23T00:39:02.416Z,8.47
2018-12-23T00:40:02.433Z,8.51
2018-12-23T00:41:23.235Z,8.43
2018-12-23T00:42:02.248Z,8.42
2018-12-23T00:43:02.097Z,8.47
2018-12-23T00:44:02.060Z,8.47
2018-12-23T00:45:01.934Z,8.40
2018-12-23T00:46:01.966Z,8.44
2018-12-23T00:47:22.751Z,8.42
2018-12-23T00:48:01.770Z,8.47
2018-12-23T00:49:01.622Z,8.48
2018-12-23T00:50:01.576Z,8.40
2018-12-23T00:51:01.458Z,8.37
2018-12-23T00:52:01.492Z,8.37
2018-12-23T00:53:22.280Z,8.36
2018-12-23T00:54:01.298Z,8.36
2018-12-23T00:55:01.142Z,8.25
2018-12-23T00:56:01.111Z,8.36
2018-12-23T00:57:00.975Z,8.37
2018-12-23T00:58:00.918Z,8.42
2018-12-23T00:59:21.803Z,8.27
2018-12-23T01:00:00.834Z,8.37
2018-12-23T01:01:00.656Z,8.39
2018-12-23T01:02:00.637Z,8.29
2018-12-23T01:03:00.497Z,8.29
2018-12-23T01:04:00.446Z,8.30
2018-12-23T01:05:28.621Z,8.24
2018-12-23T01:06:00.359Z,8.24
2018-12-23T01:07:00.183Z,8.34
2018-12-23T01:08:00.167Z,8.36
2018-12-23T01:09:00.023Z,8.27
2018-12-23T01:10:02.601Z,8.30
2018-12-23T01:11:21.166Z,8.29
2018-12-23T01:12:00.278Z,8.39
2018-12-23T01:13:00.044Z,8.32
2018-12-23T01:14:01.953Z,8.34
2018-12-23T01:14:59.998Z,8.29
2018-12-23T01:15:59.506Z,8.22
2018-12-23T01:17:20.395Z,8.30
2018-12-23T01:17:59.414Z,8.25
2018-12-23T01:18:59.225Z,8.25
2018-12-23T01:19:59.225Z,8.29
2018-12-23T01:20:59.064Z,8.25
2018-12-23T01:21:59.036Z,8.24
2018-12-23T01:23:19.883Z,8.22
2018-12-23T01:23:58.948Z,8.25
2018-12-23T01:24:58.743Z,8.21
2018-12-23T01:25:58.755Z,8.27
2018-12-23T01:26:58.592Z,8.25
2018-12-23T01:27:58.562Z,8.22
2018-12-23T01:29:19.406Z,8.19
2018-12-23T01:29:58.378Z,8.30
2018-12-23T01:30:58.264Z,8.17
2018-12-23T01:31:58.288Z,8.21
2018-12-23T01:32:58.104Z,8.34
2018-12-23T01:33:58.094Z,8.14
2018-12-23T01:35:18.932Z,8.15
2018-12-23T01:35:57.905Z,8.22
2018-12-23T01:36:57.786Z,8.19
2018-12-23T01:37:57.814Z,8.19
2018-12-23T01:38:57.626Z,8.24
2018-12-23T01:39:57.625Z,8.07
2018-12-23T01:41:18.453Z,8.15
2018-12-23T01:41:57.427Z,8.11
2018-12-23T01:42:57.308Z,8.19
2018-12-23T01:43:57.345Z,8.09
2018-12-23T01:44:57.149Z,8.19
2018-12-23T01:45:57.151Z,8.12
2018-12-23T01:47:17.969Z,8.09
2018-12-23T01:47:56.962Z,8.11
2018-12-23T01:48:56.827Z,8.06
2018-12-23T01:49:56.773Z,8.17
2018-12-23T01:50:56.667Z,8.09
2018-12-23T01:51:56.587Z,8.09
2018-12-23T01:53:17.490Z,8.12
2018-12-23T01:53:56.496Z,8.12
2018-12-23T01:54:56.351Z,8.06
2018-12-23T01:55:56.275Z,8.07
2018-12-23T01:56:56.308Z,8.09
2018-12-23T01:57:56.109Z,8.01
2018-12-23T01:59:17.109Z,8.07
2018-12-23T01:59:55.953Z,8.06
2018-12-23T02:00:55.929Z,8.01
2018-12-23T02:01:55.788Z,8.07
2018-12-23T02:02:55.734Z,8.04
2018-12-23T02:03:55.635Z,8.07
2018-12-23T02:05:16.531Z,8.06
2018-12-23T02:05:55.547Z,8.12
2018-12-23T02:06:55.396Z,8.06
2018-12-23T02:07:55.361Z,8.04
2018-12-23T02:08:55.233Z,8.11
2018-12-23T02:09:55.273Z,8.11
2018-12-23T02:11:16.051Z,8.15
2018-12-23T02:11:55.074Z,8.14
2018-12-23T02:12:54.909Z,8.19
2018-12-23T02:13:54.836Z,8.17
2018-12-23T02:14:54.791Z,8.15
2018-12-23T02:15:54.770Z,8.14
2018-12-23T02:17:15.590Z,8.07
2018-12-23T02:17:54.508Z,8.14
2018-12-23T02:18:54.510Z,8.18
2018-12-23T02:19:54.352Z,8.15
2018-12-23T02:20:54.318Z,8.06
2018-12-23T02:21:54.189Z,8.12
2018-12-23T02:23:15.124Z,8.12
2018-12-23T02:23:54.033Z,8.18
2018-12-23T02:24:54.041Z,8.17
2018-12-23T02:25:53.876Z,8.15
2018-12-23T02:26:53.848Z,8.11
2018-12-23T02:27:53.715Z,8.07
2018-12-23T02:29:14.652Z,7.99
2018-12-23T02:29:53.555Z,8.06
2018-12-23T02:30:53.569Z,7.97
2018-12-23T02:31:53.395Z,8.07
2018-12-23T02:32:53.384Z,7.97
2018-12-23T02:33:53.231Z,8.00
2018-12-23T02:35:14.182Z,7.99
2018-12-23T02:35:55.856Z,7.97
2018-12-23T02:36:53.105Z,8.00
2018-12-23T02:37:52.992Z,8.01
2018-12-23T02:38:52.916Z,8.09
2018-12-23T02:39:52.751Z,8.04
2018-12-23T02:41:13.709Z,8.07
2018-12-23T02:41:52.588Z,8.11
2018-12-23T02:42:52.629Z,8.09
2018-12-23T02:43:52.430Z,8.07
2018-12-23T02:44:52.440Z,8.01
2018-12-23T02:45:52.276Z,8.03
2018-12-23T02:47:13.275Z,8.07
2018-12-23T02:47:52.116Z,8.07
2018-12-23T02:48:52.055Z,8.04
2018-12-23T02:49:52.014Z,8.00
2018-12-23T02:50:51.871Z,8.03
2018-12-23T02:51:51.876Z,8.06
2018-12-23T02:53:12.698Z,7.99
2018-12-23T02:53:51.682Z,7.99
2018-12-23T02:54:51.560Z,7.99
2018-12-23T02:55:51.592Z,7.93
2018-12-23T02:56:51.408Z,7.99
2018-12-23T02:57:51.400Z,8.00
2018-12-23T02:59:12.213Z,7.96
2018-12-23T02:59:51.211Z,7.94
2018-12-23T03:00:51.083Z,7.90
2018-12-23T03:01:51.031Z,7.91
2018-12-23T03:02:50.914Z,7.86
2018-12-23T03:03:50.933Z,7.94
2018-12-23T03:05:11.738Z,7.94
2018-12-23T03:05:50.742Z,7.94
2018-12-23T03:06:50.596Z,7.93
2018-12-23T03:07:50.520Z,7.88
2018-12-23T03:08:50.457Z,7.94
2018-12-23T03:09:50.353Z,7.96
2018-12-23T03:11:11.362Z,8.01
2018-12-23T03:11:50.191Z,7.99
2018-12-23T03:12:50.180Z,7.99
2018-12-23T03:13:50.037Z,7.97
2018-12-23T03:14:49.985Z,7.99
2018-12-23T03:15:49.873Z,8.01
2018-12-23T03:17:10.886Z,7.96
2018-12-23T03:17:49.726Z,8.00
2018-12-23T03:18:49.637Z,7.94
2018-12-23T03:19:49.611Z,7.99
2018-12-23T03:20:49.474Z,8.01
2018-12-23T03:21:49.419Z,8.06
2018-12-23T03:23:10.297Z,8.09
2018-12-23T03:23:49.332Z,8.14
2018-12-23T03:24:49.158Z,8.11
2018-12-23T03:25:49.144Z,8.03
2018-12-23T03:26:48.992Z,8.09
2018-12-23T03:27:48.923Z,7.97
2018-12-23T03:29:09.812Z,8.01
2018-12-23T03:29:48.866Z,8.00
2018-12-23T03:30:48.671Z,8.03
2018-12-23T03:31:48.680Z,8.03
2018-12-23T03:32:48.520Z,8.03
2018-12-23T03:33:48.476Z,8.03
2018-12-23T03:35:09.328Z,7.99
2018-12-23T03:35:48.396Z,8.03
2018-12-23T03:36:48.194Z,8.03
2018-12-23T03:37:48.200Z,8.00
2018-12-23T03:38:48.041Z,8.07
2018-12-23T03:39:48.009Z,8.11
2018-12-23T03:41:08.878Z,8.12
2018-12-23T03:41:47.805Z,8.00
2018-12-23T03:42:47.826Z,8.09
2018-12-23T03:43:47.630Z,8.11
2018-12-23T03:44:47.636Z,8.06
2018-12-23T03:45:48.257Z,8.09
2018-12-23T03:47:08.432Z,8.07
2018-12-23T03:47:47.309Z,8.06
2018-12-23T03:48:47.238Z,8.03
2018-12-23T03:49:47.255Z,8.01
2018-12-23T03:50:47.077Z,8.00
2018-12-23T03:51:47.065Z,8.15
2018-12-23T03:53:07.895Z,8.09
2018-12-23T03:53:46.875Z,8.04
2018-12-23T03:54:46.752Z,8.03
2018-12-23T03:55:46.783Z,8.11
2018-12-23T03:56:46.597Z,8.14
2018-12-23T03:57:46.595Z,8.18
2018-12-23T03:59:07.426Z,8.15
2018-12-23T03:59:46.403Z,8.04
2018-12-23T04:00:46.270Z,8.12
2018-12-23T04:01:46.218Z,8.11
2018-12-23T04:02:46.113Z,8.09
2018-12-23T04:03:46.124Z,8.01
2018-12-23T04:05:06.933Z,8.11
2018-12-23T04:05:45.934Z,8.06
2018-12-23T04:06:45.789Z,8.01
2018-12-23T04:07:45.742Z,7.99
2018-12-23T04:08:45.629Z,8.09
2018-12-23T04:09:45.549Z,8.11
2018-12-23T04:11:06.550Z,8.12
2018-12-23T04:11:45.397Z,8.09
2018-12-23T04:12:45.371Z,8.12
2018-12-23T04:13:45.241Z,8.06
2018-12-23T04:14:45.173Z,8.03
2018-12-23T04:15:45.071Z,8.15
2018-12-23T04:17:06.077Z,8.04
2018-12-23T04:17:44.910Z,8.11
2018-12-23T04:18:44.896Z,8.06
2018-12-23T04:19:44.766Z,8.09
2018-12-23T04:20:44.710Z,8.03
2018-12-23T04:21:44.593Z,8.11
2018-12-23T04:23:05.618Z,8.12
2018-12-23T04:23:44.433Z,8.12
2018-12-23T04:24:44.430Z,8.11
2018-12-23T04:25:44.269Z,8.04
2018-12-23T04:26:44.232Z,8.14
2018-12-23T04:27:44.113Z,8.00
2018-12-23T04:29:05.040Z,8.03
2018-12-23T04:29:44.011Z,8.03
2018-12-23T04:30:43.872Z,8.01
2018-12-23T04:31:43.868Z,7.99
2018-12-23T04:32:43.718Z,8.00
2018-12-23T04:33:43.626Z,7.99
2018-12-23T04:35:04.571Z,8.07
2018-12-23T04:35:43.470Z,8.03
2018-12-23T04:36:43.487Z,8.00
2018-12-23T04:37:43.310Z,8.06
2018-12-23T04:38:43.297Z,8.04
2018-12-23T04:39:43.162Z,8.01
2018-12-23T04:41:04.094Z,8.03
2018-12-23T04:41:42.995Z,8.00
2018-12-23T04:42:43.016Z,7.99
2018-12-23T04:43:42.839Z,8.06
2018-12-23T04:44:42.826Z,7.99
2018-12-23T04:45:42.675Z,8.01
2018-12-23T04:47:03.629Z,8.01
2018-12-23T04:47:42.511Z,7.99
2018-12-23T04:48:42.547Z,7.96
2018-12-23T04:49:42.353Z,7.97
2018-12-23T04:50:42.355Z,7.94
2018-12-23T04:51:42.191Z,8.01
2018-12-23T04:53:03.154Z,8.03
2018-12-23T04:53:42.030Z,8.03
2018-12-23T04:54:41.952Z,8.00
2018-12-23T04:55:41.976Z,7.99
2018-12-23T04:56:41.793Z,7.99
2018-12-23T04:57:41.787Z,8.01
2018-12-23T04:59:02.617Z,7.99
2018-12-23T04:59:41.597Z,7.93
2018-12-23T05:00:41.479Z,7.99
2018-12-23T05:01:41.512Z,7.94
2018-12-23T05:02:41.313Z,7.94
2018-12-23T05:03:42.882Z,8.00
2018-12-23T05:05:02.136Z,7.96
2018-12-23T05:05:41.129Z,7.94
2018-12-23T05:06:43.426Z,7.88
2018-12-23T05:07:40.910Z,7.93
2018-12-23T05:08:40.832Z,7.96
2018-12-23T05:09:40.847Z,7.93
2018-12-23T05:11:01.651Z,7.90
2018-12-23T05:11:40.656Z,7.91
2018-12-23T05:12:40.511Z,7.91
2018-12-23T05:13:40.467Z,7.97
2018-12-23T05:14:40.349Z,7.93
2018-12-23T05:15:40.376Z,7.86
2018-12-23T05:17:01.171Z,7.88
2018-12-23T05:17:40.186Z,7.90
2018-12-23T05:18:40.032Z,7.93
2018-12-23T05:19:39.991Z,7.93
2018-12-23T05:20:39.867Z,7.93
2018-12-23T05:21:39.902Z,7.88
2018-12-23T05:23:00.688Z,7.90
2018-12-23T05:23:39.713Z,7.91
2018-12-23T05:24:39.551Z,7.90
2018-12-23T05:25:39.523Z,7.91
2018-12-23T05:26:39.399Z,7.82
2018-12-23T05:27:39.311Z,7.82
2018-12-23T05:29:00.328Z,7.82
2018-12-23T05:29:39.158Z,7.90
2018-12-23T05:30:39.144Z,7.94
2018-12-23T05:31:38.991Z,7.83
2018-12-23T05:32:38.959Z,7.76
2018-12-23T05:33:38.832Z,7.85
2018-12-23T05:34:59.758Z,7.79
2018-12-23T05:35:38.674Z,7.79
2018-12-23T05:36:38.680Z,7.83
2018-12-23T05:37:38.515Z,7.81
2018-12-23T05:38:38.486Z,7.72
2018-12-23T05:39:38.347Z,7.78
2018-12-23T05:40:59.286Z,7.76
2018-12-23T05:41:38.214Z,7.72
2018-12-23T05:42:38.113Z,7.72
2018-12-23T05:43:38.113Z,7.70
2018-12-23T05:44:37.948Z,7.72
2018-12-23T05:45:37.920Z,7.68
2018-12-23T05:46:58.764Z,7.72
2018-12-23T05:47:37.713Z,7.76
2018-12-23T05:48:37.633Z,7.78
2018-12-23T05:49:37.650Z,7.73
2018-12-23T05:50:37.466Z,7.73
2018-12-23T05:51:37.394Z,7.68
2018-12-23T05:52:58.295Z,7.82
2018-12-23T05:53:37.262Z,7.72
2018-12-23T05:54:37.149Z,7.82
2018-12-23T05:55:37.090Z,7.68
2018-12-23T05:56:37.074Z,7.79
2018-12-23T05:57:36.907Z,7.72
2018-12-23T05:58:57.874Z,7.73
2018-12-23T05:59:36.752Z,7.79
2018-12-23T06:00:36.691Z,7.81
2018-12-23T06:01:36.586Z,7.64
2018-12-23T06:02:36.608Z,7.81
2018-12-23T06:03:36.424Z,7.76
2018-12-23T06:04:57.410Z,7.83
2018-12-23T06:05:36.267Z,7.81
2018-12-23T06:06:36.194Z,7.78
2018-12-23T06:07:36.232Z,7.73
2018-12-23T06:08:36.027Z,7.81
2018-12-23T06:09:36.041Z,7.81
2018-12-23T06:10:56.851Z,7.78
2018-12-23T06:11:35.850Z,7.70
2018-12-23T06:12:35.708Z,7.76
2018-12-23T06:13:35.660Z,7.88
2018-12-23T06:14:35.550Z,7.82
2018-12-23T06:15:35.567Z,7.88
2018-12-23T06:16:56.368Z,7.83
2018-12-23T06:17:35.375Z,7.86
2018-12-23T06:18:35.227Z,7.85
2018-12-23T06:19:35.184Z,7.85
2018-12-23T06:20:35.066Z,7.81
2018-12-23T06:21:34.991Z,7.90
2018-12-23T06:22:55.992Z,7.91
2018-12-23T06:23:34.824Z,7.90
2018-12-23T06:24:34.811Z,7.93
2018-12-23T06:25:34.667Z,7.86
2018-12-23T06:26:34.615Z,7.83
2018-12-23T06:27:34.505Z,7.90
2018-12-23T06:28:55.420Z,7.83
2018-12-23T06:29:34.433Z,7.91
2018-12-23T06:30:34.262Z,7.82
2018-12-23T06:31:34.243Z,7.94
2018-12-23T06:32:34.107Z,7.93
2018-12-23T06:33:34.054Z,7.81
2018-12-23T06:34:54.926Z,7.82
2018-12-23T06:35:33.962Z,7.79
2018-12-23T06:36:33.784Z,7.83
2018-12-23T06:37:33.779Z,7.83
2018-12-23T06:38:34.609Z,7.82
2018-12-23T06:39:33.547Z,7.81
2018-12-23T06:40:54.448Z,7.86
2018-12-23T06:41:33.497Z,7.82
2018-12-23T06:42:33.309Z,7.83
2018-12-23T06:43:33.222Z,7.90
2018-12-23T06:44:33.315Z,7.81
2018-12-23T06:45:33.061Z,7.91
2018-12-23T06:46:54.113Z,7.90
2018-12-23T06:47:32.913Z,7.93
2018-12-23T06:48:32.830Z,7.94
2018-12-23T06:49:32.940Z,7.86
2018-12-23T06:50:32.678Z,7.93
2018-12-23T06:51:32.745Z,7.90
2018-12-23T06:52:53.485Z,7.93
2018-12-23T06:53:32.449Z,7.86
2018-12-23T06:54:32.346Z,7.96
2018-12-23T06:55:32.363Z,7.97
2018-12-23T06:56:32.182Z,7.86
2018-12-23T06:57:32.112Z,7.90
2018-12-23T06:58:53.069Z,7.88
2018-12-23T06:59:31.945Z,7.90
2018-12-23T07:00:31.894Z,7.91
2018-12-23T07:01:31.782Z,7.91
2018-12-23T07:02:31.798Z,7.93
2018-12-23T07:03:31.617Z,7.91
2018-12-23T07:04:52.597Z,7.96
2018-12-23T07:05:31.464Z,7.97
2018-12-23T07:06:32.541Z,8.01
2018-12-23T07:07:31.307Z,7.99
2018-12-23T07:08:31.227Z,7.96
2018-12-23T07:09:31.233Z,8.00
2018-12-23T07:10:52.047Z,8.01
2018-12-23T07:11:32.166Z,8.03
2018-12-23T07:12:30.905Z,8.04
2018-12-23T07:13:38.428Z,8.04
2018-12-23T07:14:30.751Z,8.04
2018-12-23T07:15:30.861Z,8.00
2018-12-23T07:16:51.567Z,8.01
2018-12-23T07:17:30.672Z,8.04
2018-12-23T07:18:30.420Z,8.01
2018-12-23T07:19:30.346Z,8.01
2018-12-23T07:20:30.269Z,8.04
2018-12-23T07:21:30.186Z,8.09
2018-12-23T07:22:51.086Z,8.17
2018-12-23T07:23:30.199Z,8.17
2018-12-23T07:24:29.938Z,8.12
2018-12-23T07:25:30.012Z,8.14
2018-12-23T07:26:29.779Z,8.15
2018-12-23T07:27:29.925Z,8.12
2018-12-23T07:28:50.601Z,8.17
2018-12-23T07:29:29.727Z,8.12
2018-12-23T07:30:29.457Z,8.15
2018-12-23T07:31:29.539Z,8.19
2018-12-23T07:32:29.300Z,8.19
2018-12-23T07:33:29.342Z,8.12
2018-12-23T07:34:50.122Z,8.15
2018-12-23T07:35:29.069Z,8.07
2018-12-23T07:36:29.162Z,8.17
2018-12-23T07:37:28.905Z,8.11
2018-12-23T07:38:28.969Z,8.17
2018-12-23T07:39:28.742Z,8.21
2018-12-23T07:40:49.770Z,8.22
2018-12-23T07:41:28.589Z,8.18
2018-12-23T07:42:28.690Z,8.19
2018-12-23T07:43:28.428Z,8.14
2018-12-23T07:44:28.649Z,8.14
2018-12-23T07:45:28.643Z,8.18
2018-12-23T07:46:49.301Z,8.18
2018-12-23T07:47:28.102Z,8.14
2018-12-23T07:48:28.222Z,8.09
2018-12-23T07:49:27.951Z,8.01
2018-12-23T07:50:28.027Z,8.09
2018-12-23T07:51:27.782Z,8.09
2018-12-23T07:52:48.728Z,8.11
2018-12-23T07:53:27.623Z,8.12
2018-12-23T07:54:27.647Z,8.15
2018-12-23T07:55:27.458Z,8.17
2018-12-23T07:56:27.461Z,8.18
2018-12-23T07:57:27.302Z,8.18
2018-12-23T07:58:48.256Z,8.17
2018-12-23T07:59:27.141Z,8.18
2018-12-23T08:00:27.061Z,8.15
2018-12-23T08:01:27.087Z,8.15
2018-12-23T08:02:26.904Z,8.22
2018-12-23T08:03:26.895Z,8.17
2018-12-23T08:04:47.721Z,8.18
2018-12-23T08:05:26.697Z,8.22
2018-12-23T08:06:26.586Z,8.17
2018-12-23T08:07:26.610Z,8.19
2018-12-23T08:08:26.425Z,8.22
2018-12-23T08:09:26.421Z,8.22
2018-12-23T08:10:47.244Z,8.22
2018-12-23T08:11:26.230Z,8.27
2018-12-23T08:12:26.105Z,8.25
2018-12-23T08:13:26.140Z,8.25
2018-12-23T08:14:25.948Z,8.25
2018-12-23T08:15:25.862Z,8.27
2018-12-23T08:16:46.846Z,8.19
2018-12-23T08:17:25.706Z,8.29
2018-12-23T08:18:25.660Z,8.22
2018-12-23T08:19:25.542Z,8.19
2018-12-23T08:20:25.606Z,8.25
2018-12-23T08:21:25.387Z,8.19
2018-12-23T08:22:46.383Z,8.27
2018-12-23T08:23:25.229Z,8.22
2018-12-23T08:24:25.195Z,8.24
2018-12-23T08:25:25.065Z,8.27
2018-12-23T08:26:25.103Z,8.22
2018-12-23T08:27:24.905Z,8.24
2018-12-23T08:28:45.801Z,8.27
2018-12-23T08:29:24.745Z,8.21
2018-12-23T08:30:24.669Z,8.24
2018-12-23T08:31:24.628Z,8.15
2018-12-23T08:32:24.507Z,8.29
2018-12-23T08:33:24.540Z,8.21
2018-12-23T08:34:45.332Z,8.25
2018-12-23T08:35:24.351Z,8.22
2018-12-23T08:36:24.186Z,8.22
2018-12-23T08:37:24.156Z,8.21
2018-12-23T08:38:24.031Z,8.24
2018-12-23T08:39:23.947Z,8.22
2018-12-23T08:40:44.849Z,8.18
2018-12-23T08:41:23.790Z,8.25
2018-12-23T08:42:23.714Z,8.17
2018-12-23T08:43:23.688Z,8.18
2018-12-23T08:44:23.554Z,8.18
2018-12-23T08:45:23.597Z,8.18
2018-12-23T08:46:44.365Z,8.21
2018-12-23T08:47:23.404Z,8.19
2018-12-23T08:48:23.229Z,8.22
2018-12-23T08:49:23.214Z,8.17
2018-12-23T08:50:23.079Z,8.18
2018-12-23T08:51:23.125Z,8.17
2018-12-23T08:52:43.889Z,8.24
2018-12-23T08:53:22.945Z,8.24
2018-12-23T08:54:22.807Z,8.30
2018-12-23T08:55:22.744Z,8.22
2018-12-23T08:56:22.589Z,8.19
2018-12-23T08:57:22.553Z,8.27
2018-12-23T08:58:43.408Z,8.32
2018-12-23T08:59:22.468Z,8.30
2018-12-23T09:00:22.273Z,8.29
2018-12-23T09:01:22.276Z,8.27
2018-12-23T09:02:22.107Z,8.37
2018-12-23T09:03:22.087Z,8.27
2018-12-23T09:04:42.927Z,8.27
2018-12-23T09:05:21.997Z,8.25
2018-12-23T09:06:21.788Z,8.36
2018-12-23T09:07:21.722Z,8.44
2018-12-23T09:08:21.650Z,8.32
2018-12-23T09:09:21.554Z,8.33
2018-12-23T09:10:42.626Z,8.36
2018-12-23T09:11:21.404Z,8.42
2018-12-23T09:12:21.316Z,8.37
2018-12-23T09:13:21.233Z,8.39
2018-12-23T09:14:21.154Z,8.40
2018-12-23T09:15:21.076Z,8.40
2018-12-23T09:16:42.039Z,8.39
2018-12-23T09:17:20.927Z,8.44
2018-12-23T09:18:20.837Z,8.47
2018-12-23T09:19:20.758Z,8.43
2018-12-23T09:20:20.681Z,8.43
2018-12-23T09:21:20.599Z,8.43
2018-12-23T09:22:41.568Z,8.43
2018-12-23T09:23:20.597Z,8.43
2018-12-23T09:24:20.350Z,8.42
2018-12-23T09:25:20.272Z,8.48
2018-12-23T09:26:20.316Z,8.37
2018-12-23T09:27:20.147Z,8.42
2018-12-23T09:28:41.015Z,8.51
2018-12-23T09:29:19.960Z,8.55
2018-12-23T09:30:20.014Z,8.55
2018-12-23T09:31:19.802Z,8.52
2018-12-23T09:32:19.828Z,8.62
2018-12-23T09:33:19.643Z,8.58
2018-12-23T09:34:40.544Z,8.58
2018-12-23T09:35:19.468Z,8.58
2018-12-23T09:36:19.546Z,8.54
2018-12-23T09:37:19.308Z,8.61
2018-12-23T09:38:19.358Z,8.62
2018-12-23T09:39:19.156Z,8.58
2018-12-23T09:40:40.168Z,8.58
2018-12-23T09:41:19.004Z,8.60
2018-12-23T09:42:18.974Z,8.62
2018-12-23T09:43:18.830Z,8.65
2018-12-23T09:44:18.886Z,8.62
2018-12-23T09:45:18.672Z,8.62
2018-12-23T09:46:39.690Z,8.69
2018-12-23T09:47:18.519Z,8.68
2018-12-23T09:48:18.446Z,8.61
2018-12-23T09:49:18.360Z,8.66
2018-12-23T09:50:18.277Z,8.65
2018-12-23T09:51:18.318Z,8.76
2018-12-23T09:52:39.106Z,8.70
2018-12-23T09:53:18.128Z,8.73
2018-12-23T09:54:17.962Z,8.79
2018-12-23T09:55:17.939Z,8.80
2018-12-23T09:56:17.806Z,8.79
2018-12-23T09:57:17.854Z,8.75
2018-12-23T09:58:38.855Z,8.85
2018-12-23T09:59:17.663Z,8.91
2018-12-23T10:00:17.481Z,8.85
2018-12-23T10:01:17.466Z,8.93
2018-12-23T10:02:17.333Z,8.93
2018-12-23T10:03:17.380Z,8.95
2018-12-23T10:04:38.148Z,8.98
2018-12-23T10:05:17.187Z,9.00
2018-12-23T10:06:17.305Z,9.05
2018-12-23T10:07:16.997Z,9.06
2018-12-23T10:08:16.845Z,9.09
2018-12-23T10:09:17.831Z,9.06
2018-12-23T10:10:37.672Z,9.03
2018-12-23T10:11:16.715Z,9.16
2018-12-23T10:12:17.565Z,9.19
2018-12-23T10:13:16.562Z,9.13
2018-12-23T10:14:16.369Z,9.22
2018-12-23T10:15:16.437Z,9.28
2018-12-23T10:16:37.200Z,9.13
2018-12-23T10:17:16.246Z,9.14
2018-12-23T10:18:16.055Z,9.27
2018-12-23T10:19:15.969Z,9.27
2018-12-23T10:20:15.896Z,9.35
2018-12-23T10:21:15.964Z,9.35
2018-12-23T10:22:36.718Z,9.37
2018-12-23T10:23:15.773Z,9.37
2018-12-23T10:24:15.580Z,9.42
2018-12-23T10:25:15.584Z,9.34
2018-12-23T10:26:15.417Z,9.35
2018-12-23T10:27:15.338Z,9.37
2018-12-23T10:28:36.242Z,9.37
2018-12-23T10:29:15.180Z,9.34
2018-12-23T10:30:15.209Z,9.37
2018-12-23T10:31:15.015Z,9.38
2018-12-23T10:32:14.943Z,9.31
2018-12-23T10:33:14.900Z,9.35
2018-12-23T10:34:35.958Z,9.29
2018-12-23T10:35:14.710Z,9.28
2018-12-23T10:36:14.740Z,9.34
2018-12-23T10:37:14.539Z,9.35
2018-12-23T10:38:18.336Z,9.29
2018-12-23T10:39:14.381Z,9.31
2018-12-23T10:40:35.453Z,9.31
2018-12-23T10:41:14.222Z,9.28
2018-12-23T10:42:14.282Z,9.27
2018-12-23T10:43:14.071Z,9.20
2018-12-23T10:44:14.083Z,9.12
2018-12-23T10:45:13.903Z,9.25
2018-12-23T10:46:34.889Z,9.14
2018-12-23T10:47:13.745Z,9.17
2018-12-23T10:48:13.685Z,9.16
2018-12-23T10:49:13.706Z,9.03
2018-12-23T10:50:13.511Z,9.03
2018-12-23T10:51:13.517Z,9.03
2018-12-23T10:52:34.587Z,9.06
2018-12-23T10:53:13.419Z,9.14
2018-12-23T10:54:13.192Z,9.13
2018-12-23T10:55:13.234Z,9.16
2018-12-23T10:56:13.239Z,9.20
2018-12-23T10:57:12.956Z,9.17
2018-12-23T10:58:33.865Z,9.12
2018-12-23T10:59:12.802Z,9.17
2018-12-23T11:00:13.978Z,9.17
2018-12-23T11:01:12.635Z,9.19
2018-12-23T11:02:13.844Z,9.29
2018-12-23T11:03:12.481Z,9.28
2018-12-23T11:04:33.378Z,9.32
2018-12-23T11:05:12.320Z,9.28
2018-12-23T11:06:12.235Z,9.25
2018-12-23T11:07:12.292Z,9.29
2018-12-23T11:08:12.077Z,9.16
2018-12-23T11:09:12.005Z,9.13
2018-12-23T11:10:33.015Z,9.12
2018-12-23T11:11:11.836Z,9.27
2018-12-23T11:12:11.915Z,9.25
2018-12-23T11:13:11.682Z,9.29
2018-12-23T11:14:11.608Z,9.31
2018-12-23T11:15:11.524Z,9.32
2018-12-23T11:16:32.427Z,9.35
2018-12-23T11:17:11.374Z,9.32
2018-12-23T11:18:11.286Z,9.37
2018-12-23T11:19:11.201Z,9.34
2018-12-23T11:20:11.125Z,9.42
2018-12-23T11:21:11.047Z,9.42
2018-12-23T11:22:31.951Z,9.37
2018-12-23T11:23:10.893Z,9.38
2018-12-23T11:24:10.804Z,9.40
2018-12-23T11:25:10.725Z,9.40
2018-12-23T11:26:10.711Z,9.42
2018-12-23T11:27:10.689Z,9.40
2018-12-23T11:28:31.473Z,9.35
2018-12-23T11:29:10.497Z,9.37
2018-12-23T11:30:10.329Z,9.38
2018-12-23T11:31:10.251Z,9.35
2018-12-23T11:32:10.172Z,9.38
2018-12-23T11:33:10.093Z,9.35
2018-12-23T11:34:30.996Z,9.25
2018-12-23T11:35:09.935Z,9.24
2018-12-23T11:36:09.857Z,9.25
2018-12-23T11:37:09.776Z,9.16
2018-12-23T11:38:09.695Z,9.20
2018-12-23T11:39:09.618Z,9.20
2018-12-23T11:40:30.522Z,9.27
2018-12-23T11:41:09.460Z,9.14
2018-12-23T11:42:09.390Z,9.14
2018-12-23T11:43:09.302Z,9.12
2018-12-23T11:44:09.221Z,9.24
2018-12-23T11:45:09.144Z,9.25
2018-12-23T11:46:30.049Z,9.25
2018-12-23T11:47:09.022Z,9.27
2018-12-23T11:48:08.991Z,9.24
2018-12-23T11:49:08.833Z,9.25
2018-12-23T11:50:08.930Z,9.19
2018-12-23T11:51:08.667Z,9.22
2018-12-23T11:52:29.567Z,9.19
2018-12-23T11:53:08.535Z,9.16
2018-12-23T11:54:08.515Z,9.14
2018-12-23T11:55:08.349Z,9.22
2018-12-23T11:56:08.282Z,9.19
2018-12-23T11:57:08.187Z,9.27
2018-12-23T11:58:29.100Z,9.25
2018-12-23T11:59:08.036Z,9.25
2018-12-23T12:00:07.949Z,9.22
2018-12-23T12:01:07.872Z,9.27
2018-12-23T12:02:15.069Z,9.17
2018-12-23T12:03:07.721Z,9.16
2018-12-23T12:04:28.622Z,9.09
2018-12-23T12:05:07.556Z,9.02
2018-12-23T12:06:07.476Z,9.05
2018-12-23T12:07:07.588Z,9.06
2018-12-23T12:08:07.319Z,9.02
2018-12-23T12:09:07.393Z,8.91
2018-12-23T12:10:28.159Z,8.93
2018-12-23T12:11:07.085Z,8.94
2018-12-23T12:12:06.999Z,8.97
2018-12-23T12:13:06.929Z,9.06
2018-12-23T12:14:06.849Z,9.10
2018-12-23T12:15:06.766Z,9.03
2018-12-23T12:16:27.677Z,9.12
2018-12-23T12:17:06.738Z,9.17
2018-12-23T12:18:06.528Z,9.16
2018-12-23T12:19:06.458Z,9.12
2018-12-23T12:20:06.364Z,9.19
2018-12-23T12:21:06.291Z,9.22
2018-12-23T12:22:27.198Z,9.19
2018-12-23T12:23:06.133Z,9.19
2018-12-23T12:24:06.057Z,9.24
2018-12-23T12:25:05.970Z,9.19
2018-12-23T12:26:05.893Z,9.16
2018-12-23T12:27:05.813Z,9.22
2018-12-23T12:28:26.717Z,9.17
2018-12-23T12:29:05.663Z,9.16
2018-12-23T12:30:05.581Z,9.16
2018-12-23T12:31:05.495Z,9.16
2018-12-23T12:32:05.416Z,9.14
2018-12-23T12:33:05.335Z,9.17
2018-12-23T12:34:26.239Z,9.14
2018-12-23T12:35:05.177Z,9.16
2018-12-23T12:36:05.104Z,9.20
2018-12-23T12:37:05.022Z,9.16
2018-12-23T12:38:04.943Z,9.20
2018-12-23T12:39:04.876Z,9.14
2018-12-23T12:40:25.762Z,9.13
2018-12-23T12:41:04.700Z,9.06
2018-12-23T12:42:04.623Z,9.05
2018-12-23T12:43:04.544Z,9.06
2018-12-23T12:44:04.466Z,9.10
2018-12-23T12:45:04.387Z,9.10
2018-12-23T12:46:25.289Z,9.03
2018-12-23T12:47:04.385Z,8.98
2018-12-23T12:48:04.154Z,9.10
2018-12-23T12:49:04.071Z,9.12
2018-12-23T12:50:03.991Z,9.12
2018-12-23T12:51:03.912Z,9.03
2018-12-23T12:52:24.813Z,9.05
2018-12-23T12:53:03.764Z,9.02
2018-12-23T12:54:03.676Z,9.03
2018-12-23T12:55:03.597Z,9.09
2018-12-23T12:56:03.529Z,9.05
2018-12-23T12:57:03.438Z,9.06
2018-12-23T12:58:24.336Z,9.05
2018-12-23T12:59:03.280Z,9.06
2018-12-23T13:00:03.201Z,9.10
2018-12-23T13:01:03.122Z,9.12
2018-12-23T13:02:03.040Z,9.03
2018-12-23T13:03:02.960Z,9.06
2018-12-23T13:04:23.866Z,9.02
2018-12-23T13:05:02.878Z,9.10
2018-12-23T13:06:02.728Z,8.91
2018-12-23T13:07:02.646Z,8.97
2018-12-23T13:08:03.414Z,8.95
2018-12-23T13:09:02.486Z,8.98
2018-12-23T13:10:23.385Z,8.93
2018-12-23T13:11:02.329Z,8.90
2018-12-23T13:12:02.251Z,8.72
2018-12-23T13:13:02.180Z,8.76
2018-12-23T13:14:02.086Z,8.79
2018-12-23T13:15:02.010Z,8.80
2018-12-23T13:16:22.915Z,8.76
2018-12-23T13:17:01.848Z,8.82